Time;durP1;ratioP1;P1;durP2;ratioP2;P2;SDS_P1;SDS_P2;PMS_P1;PMS_P2;Temp;Humidity;BMP_temperature;BMP_pressure;BME280_temperature;BME280_humidity;BME280_pressure;Samples;Min_cycle;Max_cycle;Signal;HPM_P1;HPM_P2
2022/03/26 00:01:51;;;;;;;55.15;29.92;;;4.40;82.10;;;;;;6311281;22;20376;-66
2022/03/26 00:04:17;;;;;;;46.47;27.98;;;4.30;82.30;;;;;;6311265;22;20002;-66
2022/03/26 00:06:43;;;;;;;50.22;28.70;;;4.20;82.90;;;;;;6310780;22;20010;-66
2022/03/26 00:09:08;;;;;;;50.00;28.55;;;4.10;82.70;;;;;;6311205;22;20011;-66
2022/03/26 00:11:34;;;;;;;54.58;29.17;;;4.20;82.70;;;;;;6311381;22;20053;-66
2022/03/26 00:14:00;;;;;;;53.30;29.40;;;4.20;82.30;;;;;;6309576;22;20056;-66
2022/03/26 00:16:26;;;;;;;51.42;29.67;;;4.20;82.70;;;;;;6310905;22;20049;-64
2022/03/26 00:18:52;;;;;;;51.88;28.70;;;4.30;82.90;;;;;;6311131;22;20023;-65
2022/03/26 00:21:18;;;;;;;53.85;29.50;;;4.30;82.80;;;;;;6311474;22;20022;-66
2022/03/26 00:23:43;;;;;;;52.97;29.20;;;4.20;82.90;;;;;;6311491;22;20001;-65
2022/03/26 00:26:11;;;;;;;58.88;29.50;;;4.20;82.70;;;;;;6311072;22;19999;-65
2022/03/26 00:28:37;;;;;;;51.65;28.83;;;4.30;82.80;;;;;;6309915;22;20007;-65
2022/03/26 00:31:04;;;;;;;52.33;29.70;;;4.30;82.80;;;;;;6311132;22;20006;-65
2022/03/26 00:33:31;;;;;;;52.55;29.63;;;4.20;83.00;;;;;;6310597;22;20010;-65
2022/03/26 00:35:57;;;;;;;57.83;31.60;;;4.20;83.20;;;;;;6311117;22;20011;-65
2022/03/26 00:38:23;;;;;;;58.80;32.08;;;4.20;83.20;;;;;;6310903;22;20254;-66
2022/03/26 00:40:49;;;;;;;51.95;29.17;;;4.30;83.30;;;;;;6311505;22;20000;-66
2022/03/26 00:43:15;;;;;;;57.33;29.77;;;4.30;82.90;;;;;;6309471;22;20078;-66
2022/03/26 00:45:42;;;;;;;51.03;28.70;;;4.30;82.80;;;;;;6310816;22;20004;-66
2022/03/26 00:48:08;;;;;;;46.47;27.30;;;4.30;83.10;;;;;;6310879;22;20391;-66
2022/03/26 00:50:34;;;;;;;48.72;27.92;;;4.10;83.90;;;;;;6311163;22;19999;-66
2022/03/26 00:53:00;;;;;;;53.75;28.90;;;3.80;84.50;;;;;;6284302;22;20018;-65
2022/03/26 00:55:26;;;;;;;53.50;29.77;;;3.70;84.90;;;;;;6310716;22;19999;-65
2022/03/26 00:57:51;;;;;;;53.75;31.27;;;3.60;85.60;;;;;;6309311;22;19995;-65
2022/03/26 01:00:17;;;;;;;53.60;28.95;;;3.60;85.70;;;;;;6311195;22;20007;-65
2022/03/26 01:02:46;;;;;;;61.53;30.10;;;3.50;86.10;;;;;;6310731;22;19996;-65
2022/03/26 01:05:11;;;;;;;58.20;31.40;;;3.50;86.30;;;;;;6311063;22;20116;-65
2022/03/26 01:07:37;;;;;;;51.90;29.33;;;3.40;86.60;;;;;;6310474;22;20407;-64
2022/03/26 01:10:06;;;;;;;57.10;32.40;;;3.20;87.50;;;;;;6310559;22;19999;-66
2022/03/26 01:12:32;;;;;;;61.30;31.65;;;3.20;87.70;;;;;;6309906;22;20007;-66
2022/03/26 01:14:58;;;;;;;53.95;30.98;;;3.20;87.80;;;;;;6310100;22;20333;-66
2022/03/26 01:17:24;;;;;;;58.30;32.45;;;3.20;87.80;;;;;;6309911;22;20010;-66
2022/03/26 01:19:54;;;;;;;59.35;32.47;;;3.30;87.30;;;;;;6310908;22;20023;-66
2022/03/26 01:22:20;;;;;;;54.88;31.65;;;3.40;87.20;;;;;;6310970;22;20022;-66
2022/03/26 01:24:46;;;;;;;54.42;30.35;;;3.60;86.70;;;;;;6310395;22;20413;-66
2022/03/26 01:27:11;;;;;;;54.00;30.00;;;3.60;86.00;;;;;;6308737;22;19999;-66
2022/03/26 01:29:38;;;;;;;57.10;32.05;;;3.80;85.50;;;;;;6310411;22;20014;-65
2022/03/26 01:32:09;;;;;;;56.97;30.25;;;3.70;85.50;;;;;;6283753;22;20013;-66
2022/03/26 01:34:39;;;;;;;51.80;28.90;;;3.60;85.90;;;;;;6310691;22;20036;-66
2022/03/26 01:37:08;;;;;;;56.50;31.85;;;3.50;86.40;;;;;;6310128;22;20461;-65
2022/03/26 01:39:33;;;;;;;56.25;30.95;;;3.30;87.00;;;;;;6310717;22;20304;-66
2022/03/26 01:42:06;;;;;;;53.88;30.35;;;3.20;88.00;;;;;;6310645;22;20022;-66
2022/03/26 01:44:33;;;;;;;53.60;30.20;;;3.00;88.40;;;;;;6310186;22;20000;-65
2022/03/26 01:47:03;;;;;;;57.08;29.00;;;2.90;89.20;;;;;;6310263;22;20222;-66
2022/03/26 01:49:33;;;;;;;55.50;29.40;;;2.90;89.20;;;;;;6310338;22;20022;-65
2022/03/26 01:52:01;;;;;;;54.33;30.40;;;2.90;89.10;;;;;;6283180;22;20007;-66
2022/03/26 01:54:27;;;;;;;58.40;30.80;;;3.00;89.00;;;;;;6310500;22;20296;-66
2022/03/26 01:56:54;;;;;;;55.85;29.73;;;3.00;88.90;;;;;;6310256;22;20021;-65
2022/03/26 01:59:21;;;;;;;57.10;31.15;;;3.10;88.60;;;;;;6307866;22;20328;-65
2022/03/26 02:01:47;;;;;;;53.50;30.52;;;3.10;88.40;;;;;;6310282;22;19999;-66
2022/03/26 02:04:12;;;;;;;52.28;29.77;;;3.10;88.70;;;;;;6283485;22;20272;-65
2022/03/26 02:06:40;;;;;;;55.10;29.85;;;3.00;88.90;;;;;;6310356;22;20004;-66
2022/03/26 02:09:16;;;;;;;53.83;30.05;;;2.90;89.20;;;;;;6309336;22;20023;-65
2022/03/26 02:11:43;;;;;;;59.10;32.55;;;2.80;89.70;;;;;;6309596;22;20003;-66
2022/03/26 02:14:10;;;;;;;55.55;30.48;;;2.80;90.10;;;;;;6308773;22;20417;-66
2022/03/26 02:16:38;;;;;;;61.63;31.20;;;2.90;89.50;;;;;;6310109;22;19995;-65
2022/03/26 02:19:06;;;;;;;57.42;30.13;;;2.80;89.30;;;;;;6309692;22;20019;-65
2022/03/26 02:21:34;;;;;;;57.42;31.05;;;2.90;89.30;;;;;;6310071;22;20004;-66
2022/03/26 02:24:02;;;;;;;55.83;31.50;;;2.90;89.20;;;;;;6310358;22;20242;-67
2022/03/26 02:26:28;;;;;;;57.97;30.35;;;2.80;89.50;;;;;;6283084;22;20007;-66
2022/03/26 02:28:55;;;;;;;56.58;30.70;;;2.70;89.80;;;;;;6308729;22;20073;-66
2022/03/26 02:31:21;;;;;;;57.67;32.42;;;2.70;89.90;;;;;;6309727;22;20033;-64
2022/03/26 02:33:48;;;;;;;58.70;30.75;;;2.70;90.10;;;;;;6310031;22;20031;-65
2022/03/26 02:36:14;;;;;;;55.13;30.58;;;2.70;90.20;;;;;;6310088;22;20004;-65
2022/03/26 02:38:40;;;;;;;52.22;28.50;;;2.70;90.10;;;;;;6310079;22;19999;-66
2022/03/26 02:41:06;;;;;;;58.35;31.52;;;2.70;90.60;;;;;;6310079;22;19995;-66
2022/03/26 02:43:32;;;;;;;57.08;31.30;;;2.70;90.40;;;;;;6308471;22;20069;-65
2022/03/26 02:45:58;;;;;;;57.75;31.73;;;2.80;89.90;;;;;;6309668;22;20003;-66
2022/03/26 02:48:23;;;;;;;52.80;29.10;;;2.80;89.70;;;;;;6310510;22;20269;-66
2022/03/26 02:50:50;;;;;;;54.08;30.63;;;2.60;89.80;;;;;;6310108;22;20079;-65
2022/03/26 02:53:15;;;;;;;53.38;29.42;;;2.60;90.40;;;;;;6309622;22;20010;-66
2022/03/26 02:55:41;;;;;;;54.58;30.02;;;2.70;90.20;;;;;;6309862;22;20003;-66
2022/03/26 02:58:09;;;;;;;55.40;29.55;;;2.60;90.40;;;;;;6308777;22;20288;-66
2022/03/26 03:00:37;;;;;;;58.58;30.08;;;2.60;90.40;;;;;;6309915;22;20010;-66
2022/03/26 03:03:03;;;;;;;58.00;31.20;;;2.90;89.80;;;;;;6283095;22;20439;-65
2022/03/26 03:05:29;;;;;;;56.08;29.45;;;2.90;89.60;;;;;;6310225;22;20078;-66
2022/03/26 03:07:54;;;;;;;56.63;31.48;;;2.70;89.60;;;;;;6282900;22;20046;-66
2022/03/26 03:10:21;;;;;;;53.13;30.63;;;2.60;90.10;;;;;;6309875;22;20006;-66
2022/03/26 03:12:50;;;;;;;55.90;31.48;;;2.60;90.30;;;;;;6308805;22;20003;-65
2022/03/26 03:15:19;;;;;;;56.90;30.90;;;2.60;90.40;;;;;;6309610;22;20126;-66
2022/03/26 03:17:47;;;;;;;59.78;31.42;;;2.50;90.60;;;;;;6309967;22;20062;-66
2022/03/26 03:20:14;;;;;;;53.78;30.73;;;2.60;90.60;;;;;;6310149;22;20004;-66
2022/03/26 03:22:41;;;;;;;55.55;31.30;;;2.60;90.60;;;;;;6310099;22;20002;-66
2022/03/26 03:25:08;;;;;;;54.85;30.48;;;2.60;90.40;;;;;;6310069;22;20007;-65
2022/03/26 03:27:34;;;;;;;53.95;29.48;;;2.60;90.50;;;;;;6308684;22;20003;-65
2022/03/26 03:30:00;;;;;;;56.22;32.60;;;2.50;90.70;;;;;;6282497;22;20300;-66
2022/03/26 03:32:26;;;;;;;54.58;29.85;;;2.50;90.80;;;;;;6310102;22;20351;-66
2022/03/26 03:34:52;;;;;;;54.60;30.45;;;2.40;90.90;;;;;;6309292;22;20003;-66
2022/03/26 03:37:18;;;;;;;57.00;32.92;;;2.40;91.00;;;;;;6309942;22;20007;-66
2022/03/26 03:39:44;;;;;;;58.22;31.80;;;2.30;91.30;;;;;;6310082;22;20006;-66
2022/03/26 03:42:12;;;;;;;55.38;31.40;;;2.20;91.50;;;;;;6309619;22;20070;-65
2022/03/26 03:44:38;;;;;;;56.00;31.17;;;2.20;91.80;;;;;;6310170;22;20407;-65
2022/03/26 03:47:04;;;;;;;61.13;33.88;;;2.10;92.10;;;;;;6309822;22;20007;-66
2022/03/26 03:49:33;;;;;;;58.80;32.20;;;2.10;92.60;;;;;;6310265;22;20003;-66
2022/03/26 03:51:59;;;;;;;57.70;32.13;;;2.20;92.10;;;;;;6311478;22;20271;-65
2022/03/26 03:54:25;;;;;;;55.75;31.58;;;2.10;92.00;;;;;;6311831;22;19999;-65
2022/03/26 03:56:51;;;;;;;56.15;31.83;;;2.00;92.10;;;;;;6311381;22;20306;-65
2022/03/26 03:59:16;;;;;;;59.38;31.88;;;1.90;92.70;;;;;;6310321;22;20292;-65
2022/03/26 04:01:42;;;;;;;58.58;32.60;;;1.70;92.80;;;;;;6311685;22;20003;-65
2022/03/26 04:04:08;;;;;;;58.97;31.88;;;1.60;93.30;;;;;;6311644;22;20071;-67
2022/03/26 04:06:33;;;;;;;61.45;32.90;;;1.60;93.40;;;;;;6311333;22;20361;-66
2022/03/26 04:08:59;;;;;;;57.60;32.25;;;1.60;93.50;;;;;;6311019;22;20458;-66
2022/03/26 04:11:25;;;;;;;57.47;31.17;;;1.80;93.30;;;;;;6311877;22;20078;-66
2022/03/26 04:13:53;;;;;;;57.92;31.52;;;1.90;93.00;;;;;;6310005;22;20057;-66
2022/03/26 04:16:23;;;;;;;61.15;34.08;;;1.90;92.60;;;;;;6311470;22;20078;-66
2022/03/26 04:18:51;;;;;;;59.95;32.08;;;1.90;92.40;;;;;;6311504;22;19995;-66
2022/03/26 04:21:17;;;;;;;61.83;33.53;;;2.00;92.30;;;;;;6311368;22;20049;-65
2022/03/26 04:23:43;;;;;;;57.25;31.05;;;2.10;92.00;;;;;;6311268;22;20011;-66
2022/03/26 04:26:09;;;;;;;67.85;33.78;;;2.30;91.60;;;;;;6311604;22;20070;-65
2022/03/26 04:28:35;;;;;;;54.58;30.45;;;2.40;91.20;;;;;;6309959;22;20018;-66
2022/03/26 04:31:02;;;;;;;60.50;32.03;;;2.60;90.50;;;;;;6311183;22;20392;-65
2022/03/26 04:33:27;;;;;;;57.38;31.25;;;2.60;90.30;;;;;;6311437;22;20060;-65
2022/03/26 04:35:53;;;;;;;54.03;30.90;;;2.40;90.30;;;;;;6310803;22;20003;-66
2022/03/26 04:38:19;;;;;;;59.55;31.10;;;2.20;91.10;;;;;;6311383;22;20418;-65
2022/03/26 04:40:45;;;;;;;53.60;31.27;;;2.10;91.40;;;;;;6310983;22;20137;-65
2022/03/26 04:43:11;;;;;;;60.53;31.98;;;2.00;91.80;;;;;;6309793;22;20003;-65
2022/03/26 04:45:37;;;;;;;58.35;32.35;;;2.00;92.30;;;;;;6311471;22;20007;-65
2022/03/26 04:48:03;;;;;;;59.22;32.13;;;2.00;92.30;;;;;;6311117;22;20049;-65
2022/03/26 04:50:29;;;;;;;61.40;33.25;;;2.00;92.40;;;;;;6311065;22;20003;-65
2022/03/26 04:52:54;;;;;;;61.60;32.17;;;2.00;92.40;;;;;;6311133;22;20003;-65
2022/03/26 04:55:20;;;;;;;62.78;33.28;;;2.00;92.40;;;;;;6311200;22;19999;-65
2022/03/26 04:57:48;;;;;;;57.00;31.05;;;1.90;92.50;;;;;;6309689;22;20413;-63
2022/03/26 05:00:16;;;;;;;58.25;32.75;;;1.90;92.60;;;;;;6310860;22;20033;-65
2022/03/26 05:02:43;;;;;;;59.97;32.70;;;1.80;93.00;;;;;;6310814;22;20131;-65
2022/03/26 05:05:11;;;;;;;62.50;32.28;;;1.60;93.30;;;;;;6311172;22;20023;-65
2022/03/26 05:07:46;;;;;;;64.47;34.20;;;1.70;93.50;;;;;;6310895;22;20015;-66
2022/03/26 05:10:23;;;;;;;58.45;32.40;;;1.70;93.40;;;;;;6310448;22;20078;-65
2022/03/26 05:12:50;;;;;;;60.42;32.67;;;1.70;93.50;;;;;;6308710;22;19999;-65
2022/03/26 05:15:17;;;;;;;65.30;33.38;;;1.70;93.40;;;;;;6310828;22;19999;-66
2022/03/26 05:17:43;;;;;;;62.90;33.40;;;1.70;93.30;;;;;;6310516;22;20023;-65
2022/03/26 05:20:12;;;;;;;61.05;32.60;;;1.70;93.30;;;;;;6310470;22;20402;-65
2022/03/26 05:22:39;;;;;;;64.70;35.00;;;1.70;93.30;;;;;;6310608;22;20010;-65
2022/03/26 05:25:05;;;;;;;61.92;33.40;;;1.80;93.40;;;;;;6310635;22;19995;-65
2022/03/26 05:27:31;;;;;;;60.78;32.13;;;1.90;93.10;;;;;;6309258;22;20011;-65
2022/03/26 05:29:56;;;;;;;63.13;32.83;;;1.90;93.00;;;;;;6310484;22;20412;-64
2022/03/26 05:32:22;;;;;;;68.47;35.55;;;1.90;92.90;;;;;;6310547;22;20003;-65
2022/03/26 05:34:48;;;;;;;61.72;33.22;;;2.10;92.40;;;;;;6311011;22;20315;-64
2022/03/26 05:37:13;;;;;;;64.93;34.38;;;2.50;91.40;;;;;;6310612;22;19999;-65
2022/03/26 05:39:39;;;;;;;71.07;35.97;;;2.90;89.60;;;;;;6310632;22;20007;-66
2022/03/26 05:42:05;;;;;;;62.22;31.58;;;3.20;88.40;;;;;;6310851;22;20341;-65
2022/03/26 05:44:31;;;;;;;59.58;31.63;;;3.90;86.30;;;;;;6309376;22;20203;-66
2022/03/26 05:46:57;;;;;;;58.70;30.95;;;4.30;84.60;;;;;;6283467;22;20038;-66
2022/03/26 05:49:26;;;;;;;61.47;32.55;;;4.40;84.20;;;;;;6310749;22;20003;-66
2022/03/26 05:51:51;;;;;;;63.08;33.78;;;4.30;84.20;;;;;;6309565;22;20083;-66
2022/03/26 05:54:18;;;;;;;58.75;32.47;;;4.40;83.60;;;;;;6310687;22;20031;-66
2022/03/26 05:56:51;;;;;;;63.35;34.03;;;4.60;82.70;;;;;;6310708;22;20007;-65
2022/03/26 05:59:23;;;;;;;61.78;33.20;;;4.60;82.40;;;;;;6309218;22;19995;-65
2022/03/26 06:01:50;;;;;;;63.42;32.50;;;4.50;82.80;;;;;;6309295;22;20115;-65
2022/03/26 06:04:17;;;;;;;59.70;31.90;;;4.50;83.20;;;;;;6309141;22;20383;-65
2022/03/26 06:06:43;;;;;;;58.03;31.45;;;4.60;82.60;;;;;;6309597;22;20003;-65
2022/03/26 06:09:10;;;;;;;58.63;31.92;;;5.20;80.80;;;;;;6308745;22;20076;-65
2022/03/26 06:11:36;;;;;;;59.95;33.45;;;5.40;80.20;;;;;;6309984;22;20023;-65
2022/03/26 06:14:02;;;;;;;65.30;33.28;;;5.60;79.20;;;;;;6307697;22;20003;-66
2022/03/26 06:16:28;;;;;;;60.65;32.42;;;6.00;77.70;;;;;;6308359;22;20028;-66
2022/03/26 06:18:54;;;;;;;57.95;32.47;;;6.30;77.10;;;;;;6307937;22;19996;-65
2022/03/26 06:21:20;;;;;;;58.97;32.25;;;6.20;77.60;;;;;;6309540;22;20004;-65
2022/03/26 06:23:46;;;;;;;61.92;32.92;;;6.10;77.40;;;;;;6308369;22;20002;-65
2022/03/26 06:26:12;;;;;;;60.00;33.17;;;5.90;77.80;;;;;;6309698;22;20325;-65
2022/03/26 06:28:38;;;;;;;66.82;32.75;;;6.00;77.60;;;;;;6308260;22;20019;-65
2022/03/26 06:31:04;;;;;;;55.72;31.60;;;6.10;77.40;;;;;;6309751;22;20057;-65
2022/03/26 06:33:29;;;;;;;55.42;30.98;;;6.00;77.80;;;;;;6309471;22;20264;-65
2022/03/26 06:35:55;;;;;;;61.67;32.15;;;5.90;78.20;;;;;;6309596;22;19999;-65
2022/03/26 06:38:21;;;;;;;59.70;33.58;;;5.90;78.60;;;;;;6309020;22;19995;-65
2022/03/26 06:40:48;;;;;;;57.08;33.03;;;6.00;78.30;;;;;;6310022;22;20384;-65
2022/03/26 06:43:14;;;;;;;61.45;34.95;;;6.20;77.70;;;;;;6308316;22;20006;-65
2022/03/26 06:45:40;;;;;;;60.88;34.08;;;6.20;78.10;;;;;;6309960;22;20007;-65
2022/03/26 06:48:06;;;;;;;62.28;32.97;;;6.10;78.70;;;;;;6310180;22;20045;-64
2022/03/26 06:50:32;;;;;;;53.80;30.08;;;5.90;78.80;;;;;;6309951;22;20027;-64
2022/03/26 06:52:59;;;;;;;60.08;32.53;;;5.90;79.40;;;;;;6309615;22;20006;-65
2022/03/26 06:55:34;;;;;;;59.45;33.42;;;6.00;79.10;;;;;;6309391;22;20027;-64
2022/03/26 06:57:59;;;;;;;62.80;33.25;;;6.20;78.40;;;;;;6308631;22;20003;-67
2022/03/26 07:00:25;;;;;;;63.13;33.42;;;6.40;78.10;;;;;;6309207;22;19999;-66
2022/03/26 07:02:51;;;;;;;60.08;35.42;;;6.40;78.40;;;;;;6308951;22;20374;-66
2022/03/26 07:05:17;;;;;;;63.55;35.10;;;6.40;78.70;;;;;;6308231;22;20313;-66
2022/03/26 07:07:43;;;;;;;66.65;34.15;;;6.50;78.10;;;;;;6308218;22;20016;-65
2022/03/26 07:10:09;;;;;;;60.33;35.47;;;6.60;77.80;;;;;;6310139;22;20071;-65
2022/03/26 07:12:35;;;;;;;64.72;36.40;;;6.60;78.00;;;;;;6305864;22;20031;-66
2022/03/26 07:15:05;;;;;;;57.63;33.78;;;6.60;78.40;;;;;;6309788;22;19999;-66
2022/03/26 07:17:30;;;;;;;67.40;36.30;;;6.70;78.50;;;;;;6309779;22;20358;-66
2022/03/26 07:19:56;;;;;;;59.80;33.78;;;6.80;78.00;;;;;;6309475;22;19998;-66
2022/03/26 07:22:22;;;;;;;61.53;35.30;;;6.90;78.20;;;;;;6308578;22;20074;-66
2022/03/26 07:24:47;;;;;;;64.85;35.88;;;7.00;77.80;;;;;;6309638;22;20078;-66
2022/03/26 07:27:13;;;;;;;62.95;34.95;;;7.20;78.00;;;;;;6310287;22;19999;-66
2022/03/26 07:29:39;;;;;;;59.42;34.53;;;7.20;77.50;;;;;;6311635;22;20006;-66
2022/03/26 07:32:07;;;;;;;67.50;35.42;;;7.30;76.80;;;;;;6311112;22;20018;-66
2022/03/26 07:34:33;;;;;;;64.25;35.33;;;7.50;76.50;;;;;;6311423;22;20436;-66
2022/03/26 07:37:00;;;;;;;53.80;31.98;;;7.60;76.50;;;;;;6310312;22;20006;-66
2022/03/26 07:39:26;;;;;;;61.78;35.25;;;7.70;76.60;;;;;;6310532;22;19995;-65
2022/03/26 07:41:52;;;;;;;59.13;34.00;;;7.80;76.20;;;;;;6311715;22;19999;-66
2022/03/26 07:44:17;;;;;;;64.20;35.72;;;8.00;76.00;;;;;;6309220;22;20004;-66
2022/03/26 07:46:43;;;;;;;59.47;33.22;;;8.00;76.20;;;;;;6311292;22;20029;-66
2022/03/26 07:49:09;;;;;;;55.33;33.42;;;8.10;76.70;;;;;;6311111;22;20242;-66
2022/03/26 07:51:35;;;;;;;56.47;33.53;;;8.20;76.60;;;;;;6311201;22;20011;-65
2022/03/26 07:54:00;;;;;;;63.25;36.08;;;8.30;75.90;;;;;;6311496;22;20003;-65
2022/03/26 07:56:26;;;;;;;52.75;33.10;;;8.20;74.70;;;;;;6311416;22;20023;-65
2022/03/26 07:58:53;;;;;;;63.90;36.22;;;8.10;75.40;;;;;;6308716;22;20013;-66
2022/03/26 08:01:19;;;;;;;62.97;34.13;;;8.20;75.10;;;;;;6310139;22;19999;-66
2022/03/26 08:03:45;;;;;;;64.90;35.00;;;8.30;75.40;;;;;;6310319;22;19992;-66
2022/03/26 08:06:11;;;;;;;64.15;34.42;;;8.60;75.40;;;;;;6309966;22;20014;-66
2022/03/26 08:08:37;;;;;;;56.05;34.45;;;8.80;75.50;;;;;;6283152;22;20019;-65
2022/03/26 08:11:02;;;;;;;65.65;36.72;;;9.00;75.00;;;;;;6310834;22;19999;-65
2022/03/26 08:13:28;;;;;;;60.63;35.90;;;9.20;74.70;;;;;;6308049;22;20010;-65
2022/03/26 08:15:54;;;;;;;60.50;35.10;;;9.30;73.90;;;;;;6308673;22;20009;-66
2022/03/26 08:18:20;;;;;;;57.58;35.40;;;9.40;74.10;;;;;;6309813;22;19999;-66
2022/03/26 08:20:48;;;;;;;56.97;34.63;;;9.60;73.80;;;;;;6310458;22;20246;-66
2022/03/26 08:23:14;;;;;;;56.70;34.20;;;10.10;73.30;;;;;;6309541;22;20006;-66
2022/03/26 08:28:24;;;;;;;55.03;32.05;;;11.40;69.40;;;;;;6309465;22;20014;-66
2022/03/26 08:30:49;;;;;;;57.83;31.85;;;12.60;67.40;;;;;;6310720;22;19999;-66
2022/03/26 08:33:16;;;;;;;53.30;32.40;;;13.50;64.60;;;;;;6310984;22;20072;-66
2022/03/26 08:35:42;;;;;;;51.28;32.60;;;14.00;62.80;;;;;;6310444;22;20014;-66
2022/03/26 08:38:08;;;;;;;51.28;31.88;;;14.20;62.30;;;;;;6311168;22;20070;-66
2022/03/26 08:40:35;;;;;;;48.22;31.38;;;14.60;62.00;;;;;;6310279;22;20003;-66
2022/03/26 08:43:01;;;;;;;48.10;31.30;;;15.60;60.20;;;;;;6308695;22;20002;-66
2022/03/26 08:45:28;;;;;;;54.30;32.42;;;15.90;58.50;;;;;;6309789;22;19999;-66
2022/03/26 08:47:54;;;;;;;51.13;32.15;;;15.70;58.60;;;;;;6310708;22;20411;-65
2022/03/26 08:50:20;;;;;;;51.58;33.25;;;15.70;58.50;;;;;;6310143;22;20025;-66
2022/03/26 08:52:51;;;;;;;46.97;32.08;;;15.70;58.00;;;;;;6310559;22;19995;-65
2022/03/26 08:55:18;;;;;;;51.55;31.88;;;15.70;58.70;;;;;;6310698;22;20026;-65
2022/03/26 08:57:44;;;;;;;51.15;30.42;;;15.70;57.50;;;;;;6309050;22;19995;-66
2022/03/26 09:00:12;;;;;;;50.13;32.70;;;15.90;59.00;;;;;;6310408;22;20000;-66
2022/03/26 09:02:39;;;;;;;54.20;33.70;;;16.40;57.10;;;;;;6309862;22;20049;-65
2022/03/26 09:05:06;;;;;;;51.08;30.90;;;16.70;56.40;;;;;;6310796;22;20353;-66
2022/03/26 09:07:33;;;;;;;46.00;30.45;;;17.10;54.80;;;;;;6310069;22;20031;-65
2022/03/26 09:09:59;;;;;;;48.13;31.45;;;17.50;55.10;;;;;;6310898;22;20045;-65
2022/03/26 09:12:24;;;;;;;48.60;31.35;;;18.20;54.20;;;;;;6309290;22;20387;-65
2022/03/26 09:14:50;;;;;;;49.85;32.80;;;18.50;52.90;;;;;;6309742;22;20074;-65
2022/03/26 09:17:17;;;;;;;50.90;32.67;;;18.40;53.10;;;;;;6310688;22;20003;-65
2022/03/26 09:19:46;;;;;;;48.10;31.90;;;18.20;53.00;;;;;;6283282;22;19999;-66
2022/03/26 09:22:11;;;;;;;47.35;31.52;;;18.30;53.00;;;;;;6310047;22;20005;-66
2022/03/26 09:24:37;;;;;;;52.75;35.05;;;18.80;52.40;;;;;;6309492;22;20369;-65
2022/03/26 09:27:03;;;;;;;49.65;31.77;;;18.40;52.20;;;;;;6310404;22;20027;-66
2022/03/26 09:29:29;;;;;;;49.97;32.70;;;17.90;53.40;;;;;;6309089;22;20472;-65
2022/03/26 09:31:55;;;;;;;51.55;34.42;;;18.40;52.90;;;;;;6311232;22;20000;-65
2022/03/26 09:34:21;;;;;;;47.58;31.48;;;19.00;52.00;;;;;;6282713;22;20351;-65
2022/03/26 09:36:47;;;;;;;50.92;32.45;;;19.40;51.60;;;;;;6309864;22;20387;-65
2022/03/26 09:39:13;;;;;;;57.67;33.78;;;19.50;49.60;;;;;;6310898;22;20053;-65
2022/03/26 09:41:40;;;;;;;57.40;35.10;;;19.60;51.10;;;;;;6310455;22;20465;-65
2022/03/26 09:44:10;;;;;;;56.20;35.17;;;20.00;48.50;;;;;;6309354;22;19999;-65
2022/03/26 09:46:36;;;;;;;45.58;32.05;;;19.70;48.80;;;;;;6308857;22;20018;-65
2022/03/26 09:49:06;;;;;;;49.70;33.75;;;19.00;49.10;;;;;;6309989;22;20003;-65
2022/03/26 09:51:32;;;;;;;54.85;34.78;;;19.10;50.20;;;;;;6309306;22;20007;-65
2022/03/26 09:54:01;;;;;;;53.15;33.85;;;19.10;49.80;;;;;;6310210;22;19999;-67
2022/03/26 09:56:29;;;;;;;52.00;33.55;;;18.40;51.30;;;;;;6309733;22;20000;-66
2022/03/26 09:58:56;;;;;;;54.63;35.95;;;18.00;52.30;;;;;;6308993;22;19996;-66
2022/03/26 10:01:22;;;;;;;60.47;36.67;;;17.60;53.10;;;;;;6310015;22;20349;-66
2022/03/26 10:04:15;;;;;;;55.03;34.33;;;17.10;53.30;;;;;;6310493;22;19995;-68
2022/03/26 10:06:52;;;;;;;59.30;35.22;;;16.70;54.00;;;;;;6075440;23;20471;-66
2022/03/26 10:09:36;;;;;;;59.42;36.20;;;16.40;54.30;;;;;;6309671;22;20067;-66
2022/03/26 10:12:07;;;;;;;55.95;34.45;;;16.40;54.70;;;;;;6310001;22;20007;-65
2022/03/26 10:14:40;;;;;;;57.03;35.03;;;16.70;54.20;;;;;;6308771;22;20003;-67
2022/03/26 10:17:17;;;;;;;48.38;31.65;;;17.00;53.50;;;;;;6308786;22;20033;-65
2022/03/26 10:19:45;;;;;;;59.70;35.28;;;17.40;52.10;;;;;;6308252;22;20010;-66
2022/03/26 10:22:27;;;;;;;57.65;33.38;;;17.80;52.00;;;;;;6310110;22;20019;-66
2022/03/26 10:24:53;;;;;;;53.30;33.40;;;18.00;52.70;;;;;;6309163;22;20002;-66
2022/03/26 10:27:19;;;;;;;58.80;31.73;;;18.30;51.70;;;;;;6307297;22;20014;-66
2022/03/26 10:29:56;;;;;;;58.85;35.65;;;19.00;49.90;;;;;;6310127;22;20425;-66
2022/03/26 10:32:43;;;;;;;55.30;33.97;;;19.60;50.20;;;;;;6309985;22;20006;-66
2022/03/26 10:35:10;;;;;;;55.97;34.92;;;19.70;50.60;;;;;;6308231;22;20380;-66
2022/03/26 10:37:45;;;;;;;52.33;33.28;;;19.70;50.40;;;;;;6310061;22;20284;-66
2022/03/26 10:40:30;;;;;;;53.33;34.67;;;19.50;50.20;;;;;;6310922;22;20000;-66
2022/03/26 10:42:56;;;;;;;55.15;33.72;;;19.20;49.90;;;;;;6308392;22;20007;-67
2022/03/26 10:45:22;;;;;;;50.63;31.13;;;19.30;51.80;;;;;;6308738;22;20129;-67
2022/03/26 10:47:52;;;;;;;48.70;33.63;;;19.90;51.00;;;;;;6310311;22;20092;-67
2022/03/26 10:50:18;;;;;;;60.08;32.97;;;20.40;49.00;;;;;;6308597;22;20372;-67
2022/03/26 10:52:43;;;;;;;51.25;34.28;;;20.50;49.00;;;;;;6310539;22;19996;-67
2022/03/26 10:55:17;;;;;;;50.75;33.50;;;20.60;49.50;;;;;;6308692;22;19999;-67
2022/03/26 10:57:47;;;;;;;53.85;33.25;;;20.80;47.40;;;;;;6306249;22;20026;-66
2022/03/26 11:00:15;;;;;;;48.00;33.65;;;21.20;48.20;;;;;;6310390;22;20014;-66
2022/03/26 11:02:41;;;;;;;53.17;33.47;;;20.60;48.90;;;;;;6309125;22;20006;-66
2022/03/26 11:05:08;;;;;;;52.22;32.80;;;20.40;49.00;;;;;;6309646;22;19999;-65
2022/03/26 11:07:37;;;;;;;50.80;34.45;;;20.60;49.00;;;;;;6311293;22;20022;-65
2022/03/26 11:10:08;;;;;;;50.63;32.88;;;21.00;48.90;;;;;;6312516;22;20010;-67
2022/03/26 11:12:35;;;;;;;59.47;34.25;;;21.20;48.40;;;;;;6310195;22;20715;-67
2022/03/26 11:15:04;;;;;;;53.88;34.08;;;21.30;48.30;;;;;;6311976;22;20011;-66
2022/03/26 11:18:00;;;;;;;53.28;33.40;;;21.20;48.10;;;;;;6311390;22;19999;-66
2022/03/26 11:21:03;;;;;;;51.15;32.92;;;20.90;49.10;;;;;;6311713;22;19999;-67
2022/03/26 11:24:06;;;;;;;39.92;25.10;;;21.50;47.50;;;;;;6311783;22;20038;-66
2022/03/26 11:27:03;;;;;;;37.33;25.30;;;21.90;44.60;;;;;;6312092;22;19995;-66
2022/03/26 11:29:34;;;;;;;43.13;26.50;;;21.90;43.10;;;;;;6310196;22;20361;-66
2022/03/26 11:32:19;;;;;;;39.03;24.45;;;22.10;43.00;;;;;;6311611;22;20026;-67
2022/03/26 11:34:46;;;;;;;37.28;25.10;;;21.90;43.10;;;;;;6311837;22;20010;-65
2022/03/26 11:37:21;;;;;;;36.42;25.70;;;22.00;42.50;;;;;;6312034;22;20018;-67
2022/03/26 11:39:51;;;;;;;47.03;26.23;;;22.00;43.20;;;;;;6311890;22;20380;-66
2022/03/26 11:42:48;;;;;;;38.63;26.20;;;22.30;41.70;;;;;;6310814;22;20015;-66
2022/03/26 11:51:20;;;;;;;39.20;26.42;;;22.80;42.20;;;;;;6311559;22;20443;-67
2022/03/26 11:54:10;;;;;;;43.40;25.95;;;22.60;41.30;;;;;;6311468;22;20357;-66
2022/03/26 11:56:35;;;;;;;38.38;26.13;;;22.20;42.00;;;;;;6290385;22;20006;-67
2022/03/26 11:59:05;;;;;;;38.10;23.98;;;22.00;41.90;;;;;;6310065;22;20000;-67
2022/03/26 12:01:38;;;;;;;39.05;24.98;;;22.10;42.80;;;;;;6311291;22;20000;-67
2022/03/26 12:04:09;;;;;;;35.47;25.17;;;22.40;41.70;;;;;;6311586;22;20009;-67
2022/03/26 12:06:50;;;;;;;38.97;27.77;;;22.50;43.10;;;;;;6312172;22;20006;-67
2022/03/26 12:09:37;;;;;;;38.40;26.27;;;21.20;41.60;;;;;;6311283;22;20093;-66
2022/03/26 12:12:15;;;;;;;38.00;25.67;;;20.90;43.30;;;;;;6311736;22;20003;-66
2022/03/26 12:15:19;;;;;;;38.38;24.95;;;21.00;43.30;;;;;;6310324;22;19999;-67
2022/03/26 12:17:49;;;;;;;39.90;25.17;;;21.50;43.30;;;;;;6186685;23;20100;-67
2022/03/26 12:20:40;;;;;;;37.50;24.73;;;21.60;41.30;;;;;;6186633;23;20048;-67
2022/03/26 12:23:26;;;;;;;38.25;25.50;;;21.60;42.70;;;;;;6264107;22;20007;-66
2022/03/26 12:25:58;;;;;;;34.67;24.80;;;21.90;42.70;;;;;;6312078;22;20373;-66
2022/03/26 12:28:29;;;;;;;36.65;25.60;;;21.60;42.30;;;;;;6310160;22;20500;-66
2022/03/26 12:30:57;;;;;;;33.22;23.13;;;21.60;43.40;;;;;;6284293;22;20003;-66
2022/03/26 12:33:29;;;;;;;37.50;24.67;;;22.20;43.00;;;;;;6311279;22;20076;-66
2022/03/26 12:35:55;;;;;;;37.40;25.35;;;22.50;40.80;;;;;;6311224;22;20003;-66
2022/03/26 12:38:22;;;;;;;36.00;24.25;;;22.20;40.70;;;;;;6311092;22;19995;-66
2022/03/26 12:40:53;;;;;;;36.92;25.17;;;21.80;41.40;;;;;;6311034;22;20006;-65
2022/03/26 12:43:19;;;;;;;38.33;25.42;;;21.70;42.80;;;;;;6309320;22;19999;-66
2022/03/26 12:45:45;;;;;;;36.35;25.50;;;21.90;42.40;;;;;;6310327;22;20419;-64
2022/03/26 12:48:12;;;;;;;35.85;25.48;;;21.90;41.00;;;;;;6310265;22;20007;-65